Time;durP1;ratioP1;P1;durP2;ratioP2;P2;SDS_P1;SDS_P2;PMS_P1;PMS_P2;Temp;Humidity;BMP_temperature;BMP_pressure;BME280_temperature;BME280_humidity;BME280_pressure;Samples;Min_cycle;Max_cycle;Signal;HPM_P1;HPM_P2
2022/01/02 00:00:25;;;;;;;47.10;6.53;;;12.30;99.90;;;;;;5084923;28;20051;-76
2022/01/02 00:02:52;;;;;;;52.88;6.43;;;12.30;99.90;;;;;;5086077;28;20087;-75
2022/01/02 00:05:21;;;;;;;41.38;5.95;;;12.30;99.90;;;;;;5084804;28;20062;-75
2022/01/02 00:08:02;;;;;;;34.63;5.65;;;12.40;99.90;;;;;;5085216;28;20243;-75
2022/01/02 00:10:33;;;;;;;38.00;5.03;;;12.40;99.90;;;;;;5086187;28;20035;-76
2022/01/02 00:13:01;;;;;;;44.28;5.90;;;12.40;99.90;;;;;;5084544;28;20059;-76
2022/01/02 00:15:27;;;;;;;44.05;5.60;;;12.50;99.90;;;;;;5084203;28;20370;-76
2022/01/02 00:17:55;;;;;;;45.50;5.75;;;12.50;99.90;;;;;;5085130;28;20020;-77
2022/01/02 00:20:31;;;;;;;40.63;4.72;;;12.50;99.90;;;;;;5084536;28;20261;-77
2022/01/02 00:23:00;;;;;;;39.72;5.60;;;12.50;99.90;;;;;;5085163;28;20043;-78
2022/01/02 00:25:31;;;;;;;43.90;6.00;;;12.40;99.90;;;;;;5084645;28;20048;-75
2022/01/02 00:27:58;;;;;;;37.13;4.97;;;12.40;99.90;;;;;;5086113;28;20203;-75
2022/01/02 00:30:25;;;;;;;38.22;5.18;;;12.30;99.90;;;;;;5084982;28;20277;-76
2022/01/02 00:32:51;;;;;;;37.75;5.25;;;12.20;99.90;;;;;;5086067;28;20036;-75
2022/01/02 00:35:17;;;;;;;52.10;6.90;;;12.20;99.90;;;;;;5087151;28;20021;-74
2022/01/02 00:37:43;;;;;;;38.88;6.22;;;12.20;99.90;;;;;;5087174;28;20084;-75
2022/01/02 00:40:14;;;;;;;46.78;5.78;;;12.20;99.90;;;;;;5085910;28;20031;-74
2022/01/02 00:42:42;;;;;;;39.67;5.45;;;12.20;99.90;;;;;;5085554;28;20024;-76
2022/01/02 00:45:27;;;;;;;52.83;6.00;;;12.20;99.90;;;;;;5085055;28;20055;-76
2022/01/02 00:48:14;;;;;;;42.95;5.43;;;12.30;99.90;;;;;;5067601;28;20292;-75
2022/01/02 00:51:01;;;;;;;38.97;6.05;;;12.30;99.90;;;;;;5070403;28;20074;-75
2022/01/02 00:53:35;;;;;;;47.05;6.70;;;12.30;99.90;;;;;;5085180;28;20096;-75
2022/01/02 00:56:03;;;;;;;49.15;5.55;;;12.30;99.90;;;;;;5084384;28;20079;-75
2022/01/02 00:58:37;;;;;;;34.88;5.38;;;12.30;99.90;;;;;;5083631;28;20024;-75
2022/01/02 01:01:06;;;;;;;38.78;5.28;;;12.30;99.90;;;;;;5083764;28;20027;-76
2022/01/02 01:03:32;;;;;;;47.92;5.90;;;12.30;99.90;;;;;;5084043;28;20024;-75
2022/01/02 01:06:03;;;;;;;52.38;6.80;;;12.30;99.90;;;;;;5085167;28;20207;-75
2022/01/02 01:08:31;;;;;;;46.35;5.60;;;12.30;99.90;;;;;;5085107;28;20043;-74
2022/01/02 01:10:59;;;;;;;48.75;5.82;;;12.30;99.90;;;;;;5066986;28;20043;-75
2022/01/02 01:13:25;;;;;;;38.90;5.38;;;12.20;99.90;;;;;;5083628;28;20069;-75
2022/01/02 01:15:51;;;;;;;46.58;6.75;;;12.20;99.90;;;;;;5083248;28;20345;-74
2022/01/02 01:18:17;;;;;;;36.78;5.35;;;12.20;99.90;;;;;;5082879;28;20024;-76
2022/01/02 01:20:44;;;;;;;37.08;5.57;;;12.20;99.90;;;;;;5084660;28;20025;-76
2022/01/02 01:23:15;;;;;;;39.85;5.38;;;12.20;99.90;;;;;;5083763;28;20087;-74
2022/01/02 01:25:46;;;;;;;42.67;5.90;;;12.20;99.90;;;;;;5083886;28;20023;-74
2022/01/02 01:28:13;;;;;;;41.80;6.32;;;12.20;99.90;;;;;;5084676;28;20282;-76
2022/01/02 01:30:39;;;;;;;49.30;5.93;;;12.30;99.90;;;;;;5066678;28;20017;-75
2022/01/02 01:33:05;;;;;;;41.92;5.20;;;12.20;99.90;;;;;;5084139;28;20073;-75
2022/01/02 01:35:30;;;;;;;51.15;6.85;;;12.20;99.90;;;;;;5084279;28;20080;-74
2022/01/02 01:37:56;;;;;;;56.22;6.05;;;12.20;99.90;;;;;;5083114;28;20043;-75
2022/01/02 01:40:22;;;;;;;39.20;5.38;;;12.10;99.90;;;;;;5082801;28;20024;-74
2022/01/02 01:42:59;;;;;;;48.05;6.03;;;12.20;99.90;;;;;;5083979;28;20020;-76
2022/01/02 01:45:29;;;;;;;41.00;5.93;;;12.20;99.90;;;;;;5084176;28;20250;-74
2022/01/02 01:48:01;;;;;;;42.65;6.00;;;12.20;99.90;;;;;;5083371;28;20307;-75
2022/01/02 01:50:30;;;;;;;45.47;5.32;;;12.20;99.90;;;;;;5084072;28;20024;-74
2022/01/02 01:52:57;;;;;;;49.00;5.43;;;12.30;99.90;;;;;;5084425;28;20025;-75
2022/01/02 01:55:22;;;;;;;49.08;5.80;;;12.30;99.90;;;;;;5065675;28;20187;-75
2022/01/02 01:57:51;;;;;;;45.65;5.30;;;12.30;99.90;;;;;;5083717;28;20071;-75
2022/01/02 02:00:20;;;;;;;50.30;6.28;;;12.30;99.90;;;;;;5082599;28;20024;-75
2022/01/02 02:02:46;;;;;;;38.78;5.45;;;12.30;99.90;;;;;;5082620;28;20024;-74
2022/01/02 02:05:12;;;;;;;49.03;6.45;;;12.30;99.90;;;;;;5066359;28;20087;-75
2022/01/02 02:07:41;;;;;;;41.30;5.57;;;12.30;99.90;;;;;;5084321;28;20085;-76
2022/01/02 02:10:13;;;;;;;45.85;5.85;;;12.40;99.90;;;;;;5083430;28;20311;-76
2022/01/02 02:12:41;;;;;;;36.95;6.18;;;12.30;99.90;;;;;;5066902;28;20039;-75
2022/01/02 02:15:09;;;;;;;37.80;4.85;;;12.30;99.90;;;;;;5082246;28;20017;-75
2022/01/02 02:17:36;;;;;;;49.35;5.68;;;12.30;99.90;;;;;;5066490;28;20051;-75
2022/01/02 02:20:24;;;;;;;43.22;5.47;;;12.40;99.90;;;;;;5082589;28;20031;-75
2022/01/02 02:22:52;;;;;;;39.22;4.80;;;12.40;99.90;;;;;;5082833;28;20323;-74
2022/01/02 02:25:21;;;;;;;42.35;5.97;;;12.50;99.90;;;;;;5083951;28;20344;-75
2022/01/02 02:27:54;;;;;;;37.03;4.97;;;12.50;99.90;;;;;;5082729;28;20123;-75
2022/01/02 02:30:19;;;;;;;31.17;4.97;;;12.60;99.90;;;;;;5070647;28;20027;-75
2022/01/02 02:32:46;;;;;;;31.27;4.25;;;12.60;99.90;;;;;;5087652;28;20095;-74
2022/01/02 02:35:13;;;;;;;44.05;6.05;;;12.60;99.90;;;;;;5086717;28;20025;-75
2022/01/02 02:37:43;;;;;;;40.58;5.80;;;12.60;99.90;;;;;;5092687;28;20021;-75
2022/01/02 02:40:12;;;;;;;40.92;5.20;;;12.70;99.90;;;;;;5100498;28;20024;-75
2022/01/02 02:51:22;;;;;;;33.35;5.20;;;12.60;99.90;;;;;;5086267;28;20361;-75
2022/01/02 02:53:49;;;;;;;35.03;4.57;;;12.60;99.90;;;;;;5087747;28;20028;-76
2022/01/02 02:56:20;;;;;;;31.40;4.75;;;12.60;99.90;;;;;;5086445;28;20216;-75
2022/01/02 02:58:49;;;;;;;26.55;4.03;;;12.60;99.90;;;;;;5087267;28;20030;-75
2022/01/02 03:01:17;;;;;;;41.45;5.05;;;12.60;99.90;;;;;;5086213;28;20031;-76
2022/01/02 03:03:45;;;;;;;29.85;4.47;;;12.60;99.90;;;;;;5086161;28;20315;-76
2022/01/02 03:06:11;;;;;;;36.58;5.22;;;12.60;99.90;;;;;;5087338;28;20020;-75
2022/01/02 03:08:37;;;;;;;36.33;4.78;;;12.60;99.90;;;;;;5086171;28;20087;-75
2022/01/02 03:11:07;;;;;;;34.80;4.57;;;12.70;99.90;;;;;;5086059;28;20085;-75
2022/01/02 03:13:33;;;;;;;24.40;3.65;;;12.70;99.90;;;;;;5086706;28;20032;-75
2022/01/02 03:15:58;;;;;;;28.90;4.85;;;12.70;99.90;;;;;;5085317;28;20095;-75
2022/01/02 03:18:24;;;;;;;28.83;5.47;;;12.70;99.90;;;;;;5069508;28;20025;-74
2022/01/02 03:20:50;;;;;;;31.40;4.63;;;12.70;99.90;;;;;;5085889;28;20020;-76
2022/01/02 03:23:15;;;;;;;32.78;4.15;;;12.70;99.90;;;;;;5086123;28;20070;-74
2022/01/02 03:25:41;;;;;;;29.05;4.80;;;12.70;99.90;;;;;;5087107;28;20036;-74
2022/01/02 03:28:10;;;;;;;38.40;4.55;;;12.70;99.90;;;;;;5086406;28;20218;-74
2022/01/02 03:30:35;;;;;;;27.30;4.68;;;12.80;99.90;;;;;;5069001;28;20206;-75
2022/01/02 03:33:01;;;;;;;20.50;3.35;;;12.80;99.90;;;;;;5086250;28;20033;-74
2022/01/02 03:35:27;;;;;;;24.98;3.85;;;12.80;99.90;;;;;;5085638;28;20369;-74
2022/01/02 03:37:54;;;;;;;23.77;3.20;;;12.70;99.90;;;;;;5085327;28;20025;-74
2022/01/02 03:40:20;;;;;;;21.92;3.17;;;12.80;99.90;;;;;;5085913;28;20024;-74
2022/01/02 03:42:45;;;;;;;14.40;2.50;;;12.80;99.90;;;;;;5086385;28;20315;-73
2022/01/02 03:45:11;;;;;;;10.85;2.55;;;12.90;99.90;;;;;;5086432;28;20021;-74
2022/01/02 03:47:37;;;;;;;16.65;2.03;;;12.90;99.90;;;;;;5086862;28;20052;-75
2022/01/02 03:50:04;;;;;;;17.90;3.50;;;12.90;99.90;;;;;;5086250;28;20032;-73
2022/01/02 03:52:30;;;;;;;11.70;2.50;;;12.80;99.90;;;;;;5085843;28;20075;-74
2022/01/02 03:54:57;;;;;;;17.25;2.20;;;12.80;99.90;;;;;;5085102;28;20040;-75
2022/01/02 03:57:22;;;;;;;13.32;2.63;;;12.80;99.90;;;;;;5085126;28;20036;-75
2022/01/02 03:59:49;;;;;;;16.70;2.60;;;12.80;99.90;;;;;;5086420;28;20036;-75
2022/01/02 04:02:14;;;;;;;10.70;1.80;;;12.80;99.90;;;;;;5085324;28;20024;-75
2022/01/02 04:04:40;;;;;;;14.88;2.60;;;12.80;99.90;;;;;;5084928;28;20016;-76
2022/01/02 04:07:06;;;;;;;12.98;2.53;;;12.80;99.90;;;;;;5086372;28;20056;-75
2022/01/02 04:09:31;;;;;;;17.88;2.38;;;12.80;99.90;;;;;;5068621;28;20021;-75
2022/01/02 04:11:57;;;;;;;10.27;1.90;;;12.80;99.90;;;;;;5084564;28;20056;-74
2022/01/02 04:14:23;;;;;;;10.25;1.63;;;12.80;99.90;;;;;;5085163;28;20024;-74
2022/01/02 04:16:49;;;;;;;13.02;2.35;;;12.80;99.90;;;;;;5083539;28;20203;-76
2022/01/02 04:19:15;;;;;;;8.43;1.65;;;12.80;99.90;;;;;;5085807;28;20017;-70
2022/01/02 04:21:41;;;;;;;7.93;1.02;;;12.60;99.90;;;;;;5084627;28;20020;-72
2022/01/02 04:24:06;;;;;;;9.07;0.70;;;12.20;99.90;;;;;;5085981;28;20267;-69
2022/01/02 04:26:32;;;;;;;4.60;0.90;;;11.90;99.90;;;;;;5084853;28;20036;-70
2022/01/02 04:28:58;;;;;;;4.95;0.65;;;11.60;99.90;;;;;;5085906;28;20025;-69
2022/01/02 04:31:24;;;;;;;11.38;1.13;;;11.50;99.90;;;;;;5084617;28;20024;-70
2022/01/02 04:33:50;;;;;;;5.18;0.75;;;11.40;99.90;;;;;;5085185;28;20024;-70
2022/01/02 04:36:16;;;;;;;7.90;1.15;;;11.30;99.90;;;;;;5085606;28;20294;-71
2022/01/02 04:38:42;;;;;;;11.30;1.30;;;11.30;99.90;;;;;;5084477;28;20024;-69
2022/01/02 04:41:09;;;;;;;9.43;1.42;;;11.30;99.90;;;;;;5085340;28;20040;-69
2022/01/02 04:43:35;;;;;;;13.60;1.65;;;11.20;99.90;;;;;;5084185;28;20083;-70
2022/01/02 04:46:00;;;;;;;17.10;1.80;;;11.20;99.90;;;;;;5085321;28;20036;-69
2022/01/02 04:48:26;;;;;;;15.55;2.25;;;11.20;99.90;;;;;;5084535;28;20024;-70
2022/01/02 04:50:52;;;;;;;22.35;2.40;;;11.20;99.90;;;;;;5083626;28;20044;-68
2022/01/02 04:53:20;;;;;;;18.35;2.33;;;11.10;99.90;;;;;;5085149;28;20033;-70
2022/01/02 04:55:45;;;;;;;22.50;2.72;;;11.10;99.90;;;;;;5084642;28;20218;-70
2022/01/02 04:58:12;;;;;;;22.08;2.35;;;11.00;99.90;;;;;;5085136;28;20020;-70
2022/01/02 05:00:37;;;;;;;19.48;2.38;;;11.00;99.90;;;;;;5084595;28;20032;-71
2022/01/02 05:03:03;;;;;;;20.38;2.50;;;10.90;99.90;;;;;;5084522;28;20141;-71
2022/01/02 05:05:29;;;;;;;24.15;3.05;;;10.90;99.90;;;;;;5084940;28;20048;-69
2022/01/02 05:07:54;;;;;;;20.75;2.85;;;10.90;99.90;;;;;;5083988;28;20024;-70
2022/01/02 05:10:20;;;;;;;20.80;2.15;;;10.80;99.90;;;;;;5067175;28;20021;-69
2022/01/02 05:12:46;;;;;;;20.60;2.20;;;10.90;99.90;;;;;;5085002;28;20062;-69
2022/01/02 05:15:11;;;;;;;20.45;2.28;;;10.80;99.90;;;;;;5066921;28;20028;-71
2022/01/02 05:17:37;;;;;;;19.55;1.98;;;10.80;99.90;;;;;;5082548;28;20301;-70
2022/01/02 05:20:04;;;;;;;16.33;1.77;;;10.70;99.90;;;;;;5084943;28;20020;-70
2022/01/02 05:22:30;;;;;;;17.77;1.88;;;10.70;99.90;;;;;;5085028;28;20016;-71
2022/01/02 05:24:56;;;;;;;23.23;2.75;;;10.70;99.90;;;;;;5084447;28;20035;-71
2022/01/02 05:27:21;;;;;;;14.10;1.88;;;10.70;99.90;;;;;;5083172;28;20315;-71
2022/01/02 05:29:47;;;;;;;16.70;1.85;;;10.70;99.90;;;;;;5083250;28;20303;-70
2022/01/02 05:32:13;;;;;;;24.88;2.67;;;10.70;99.90;;;;;;5084438;28;20211;-70
2022/01/02 05:34:39;;;;;;;19.98;2.35;;;10.70;99.90;;;;;;5083943;28;20028;-70
2022/01/02 05:37:04;;;;;;;19.30;2.72;;;10.70;99.90;;;;;;5083121;28;20389;-71
2022/01/02 05:39:30;;;;;;;21.80;2.40;;;10.70;99.90;;;;;;5084511;28;20323;-70
2022/01/02 05:41:56;;;;;;;24.45;2.20;;;10.70;99.90;;;;;;5093775;28;20020;-69
2022/01/02 05:44:22;;;;;;;15.18;2.13;;;10.80;99.90;;;;;;5095089;28;20021;-71
2022/01/02 05:46:48;;;;;;;15.18;1.98;;;10.80;99.90;;;;;;5094625;28;20016;-72
2022/01/02 05:49:14;;;;;;;20.38;1.95;;;10.90;99.90;;;;;;5091290;28;20028;-71
2022/01/02 05:51:40;;;;;;;18.55;2.55;;;10.80;99.90;;;;;;5088765;28;20024;-72
2022/01/02 05:54:07;;;;;;;13.13;1.80;;;10.90;99.90;;;;;;5083018;28;20079;-72
2022/01/02 05:56:33;;;;;;;20.20;2.53;;;10.90;99.90;;;;;;5082957;28;20020;-70
2022/01/02 05:58:59;;;;;;;14.75;2.17;;;10.90;99.90;;;;;;5083410;28;20025;-72
2022/01/02 06:01:25;;;;;;;13.18;1.60;;;10.90;99.90;;;;;;5083584;28;20047;-72
2022/01/02 06:03:51;;;;;;;19.55;2.10;;;11.00;99.90;;;;;;5083168;28;20318;-72
2022/01/02 06:06:16;;;;;;;20.02;2.78;;;11.00;99.90;;;;;;5082920;28;20017;-71
2022/01/02 06:08:42;;;;;;;14.00;2.70;;;11.00;99.90;;;;;;5084076;28;20040;-72
2022/01/02 06:11:08;;;;;;;21.75;3.05;;;11.00;99.90;;;;;;5083812;28;20056;-71
2022/01/02 06:13:33;;;;;;;14.13;2.25;;;11.00;99.90;;;;;;5084200;28;20028;-72
2022/01/02 06:15:59;;;;;;;21.75;2.97;;;11.10;99.90;;;;;;5083470;28;20091;-71
2022/01/02 06:18:25;;;;;;;12.93;2.10;;;11.10;99.90;;;;;;5081068;28;20077;-72
2022/01/02 06:20:51;;;;;;;19.50;2.20;;;11.10;99.90;;;;;;5083792;28;20223;-71
2022/01/02 06:23:17;;;;;;;13.68;2.03;;;11.10;99.90;;;;;;5066227;28;20031;-74
2022/01/02 06:25:44;;;;;;;20.52;2.92;;;11.10;99.90;;;;;;5082782;28;20440;-71
2022/01/02 06:28:10;;;;;;;14.88;1.80;;;11.20;99.90;;;;;;5082544;28;20024;-71
2022/01/02 06:30:36;;;;;;;16.65;2.00;;;11.20;99.90;;;;;;5082727;28;20019;-72
2022/01/02 06:33:01;;;;;;;18.95;2.47;;;11.20;99.90;;;;;;5082306;28;20031;-72
2022/01/02 06:35:32;;;;;;;14.32;1.60;;;11.20;99.90;;;;;;5082091;28;20076;-71
2022/01/02 06:37:59;;;;;;;13.83;1.90;;;11.20;99.90;;;;;;5083999;28;20024;-73
2022/01/02 06:40:25;;;;;;;11.05;1.52;;;11.20;99.90;;;;;;5082672;28;20024;-74
2022/01/02 06:42:51;;;;;;;12.60;1.58;;;11.20;99.90;;;;;;5083254;28;20048;-72
2022/01/02 06:45:17;;;;;;;9.77;1.40;;;11.20;99.90;;;;;;5083280;28;20021;-72
2022/01/02 06:47:43;;;;;;;16.55;1.90;;;11.30;99.90;;;;;;5083248;28;20226;-72
2022/01/02 06:50:11;;;;;;;7.55;1.48;;;11.30;99.90;;;;;;5083398;28;20021;-72
2022/01/02 06:52:38;;;;;;;17.40;1.83;;;11.30;99.90;;;;;;5082306;28;20025;-75
2022/01/02 06:55:04;;;;;;;12.25;1.50;;;11.30;99.90;;;;;;5083001;28;20369;-75
2022/01/02 06:57:30;;;;;;;8.07;1.50;;;11.30;99.90;;;;;;5065935;28;20013;-75
2022/01/02 06:59:56;;;;;;;16.58;2.40;;;11.30;99.90;;;;;;5083741;28;20119;-73
2022/01/02 07:02:22;;;;;;;10.13;1.85;;;11.30;99.90;;;;;;5082688;28;20020;-72
2022/01/02 07:04:48;;;;;;;12.13;2.00;;;11.30;99.90;;;;;;5082986;28;20234;-73
2022/01/02 07:07:13;;;;;;;10.55;1.60;;;11.30;99.90;;;;;;5083565;28;20028;-74
2022/01/02 07:09:39;;;;;;;14.68;2.22;;;11.30;99.90;;;;;;5083567;28;20028;-73
2022/01/02 07:12:05;;;;;;;10.68;1.58;;;11.30;99.90;;;;;;5081860;28;20035;-74
2022/01/02 07:14:31;;;;;;;8.88;1.45;;;11.30;99.90;;;;;;5083557;28;20020;-72
2022/01/02 07:16:59;;;;;;;13.55;2.42;;;11.30;99.90;;;;;;5085035;28;20305;-72
2022/01/02 07:19:25;;;;;;;11.77;1.48;;;11.30;99.90;;;;;;5085376;28;20025;-73
2022/01/02 07:21:52;;;;;;;14.15;2.00;;;11.30;99.90;;;;;;5087303;28;20093;-73
2022/01/02 07:24:19;;;;;;;11.50;1.60;;;11.20;99.90;;;;;;5087119;28;20020;-74
2022/01/02 07:26:45;;;;;;;15.88;1.65;;;11.10;99.90;;;;;;5085526;28;20028;-74
2022/01/02 07:29:11;;;;;;;13.57;1.85;;;11.10;99.90;;;;;;5085808;28;20035;-73
2022/01/02 07:31:37;;;;;;;12.57;1.42;;;11.00;99.90;;;;;;5085664;28;20043;-75
2022/01/02 07:34:04;;;;;;;14.57;1.95;;;11.00;99.90;;;;;;5085526;28;20055;-73
2022/01/02 07:36:30;;;;;;;12.73;1.73;;;11.00;99.90;;;;;;5085200;28;20126;-74
2022/01/02 07:38:55;;;;;;;14.00;1.73;;;11.00;99.90;;;;;;5069212;28;20021;-75
2022/01/02 07:41:21;;;;;;;15.65;1.80;;;11.00;99.90;;;;;;5086225;28;20016;-73
2022/01/02 07:43:47;;;;;;;17.25;2.47;;;10.90;99.90;;;;;;5085430;28;20020;-73
2022/01/02 07:46:12;;;;;;;13.48;2.20;;;11.00;99.90;;;;;;5068632;28;20386;-73
2022/01/02 07:48:38;;;;;;;20.42;2.47;;;11.00;99.90;;;;;;5086427;28;20021;-74
2022/01/02 07:51:05;;;;;;;12.88;2.03;;;11.00;99.90;;;;;;5086272;28;20029;-74
2022/01/02 07:53:30;;;;;;;15.40;2.25;;;11.10;99.90;;;;;;5086536;28;20013;-73
2022/01/02 07:55:56;;;;;;;8.68;1.60;;;11.10;99.90;;;;;;5085072;28;20084;-75
2022/01/02 07:58:22;;;;;;;12.75;1.70;;;11.10;99.90;;;;;;5086636;28;20020;-73
2022/01/02 08:00:50;;;;;;;14.65;1.50;;;11.20;99.90;;;;;;5068711;28;20024;-73
2022/01/02 08:03:15;;;;;;;10.90;1.80;;;11.20;99.90;;;;;;5085711;28;20020;-75
2022/01/02 08:05:41;;;;;;;14.18;1.83;;;11.20;99.90;;;;;;5086430;28;20094;-74
2022/01/02 08:08:07;;;;;;;14.95;1.30;;;11.20;99.90;;;;;;5085990;28;20042;-74
2022/01/02 08:10:32;;;;;;;14.07;2.20;;;11.20;99.90;;;;;;5084486;28;20020;-75
2022/01/02 08:12:58;;;;;;;10.50;1.42;;;11.20;99.90;;;;;;5068465;28;20086;-75
2022/01/02 08:15:24;;;;;;;9.52;1.45;;;11.20;99.90;;;;;;5084770;28;20283;-72
2022/01/02 08:17:50;;;;;;;6.57;1.48;;;11.20;99.90;;;;;;5085628;28;20216;-73
2022/01/02 08:20:15;;;;;;;6.97;0.85;;;11.20;99.90;;;;;;5084396;28;20308;-74
2022/01/02 08:22:41;;;;;;;2.75;0.70;;;11.20;99.90;;;;;;5086106;28;20027;-73
2022/01/02 08:25:07;;;;;;;5.68;0.90;;;11.20;99.90;;;;;;5084749;28;20048;-73
2022/01/02 08:27:33;;;;;;;3.47;0.57;;;11.10;99.90;;;;;;5085416;28;20060;-73
2022/01/02 08:29:58;;;;;;;4.70;1.23;;;11.10;99.90;;;;;;5084353;28;20032;-73
2022/01/02 08:32:24;;;;;;;3.88;0.50;;;11.10;99.90;;;;;;5084485;28;20028;-74
2022/01/02 08:34:50;;;;;;;5.47;0.43;;;11.00;99.90;;;;;;5085730;28;20030;-73
2022/01/02 08:37:17;;;;;;;2.47;0.45;;;11.00;99.90;;;;;;5083972;28;20048;-73
2022/01/02 08:39:43;;;;;;;4.30;0.50;;;10.90;99.90;;;;;;5085683;28;20133;-74
2022/01/02 08:42:10;;;;;;;3.45;0.60;;;10.80;99.90;;;;;;5084726;28;20036;-73
2022/01/02 08:44:38;;;;;;;6.30;0.68;;;10.90;99.90;;;;;;5091224;28;20029;-76
2022/01/02 08:47:04;;;;;;;2.83;0.55;;;10.90;99.90;;;;;;5093993;28;20029;-73
2022/01/02 08:49:30;;;;;;;3.67;0.68;;;10.90;99.90;;;;;;5074178;28;20020;-75
2022/01/02 08:51:55;;;;;;;3.83;0.40;;;11.00;99.90;;;;;;5091384;28;20349;-74
2022/01/02 08:54:21;;;;;;;6.00;0.85;;;11.00;99.90;;;;;;5089563;28;20024;-76
2022/01/02 08:56:47;;;;;;;1.70;0.25;;;11.00;99.90;;;;;;5086959;28;20040;-74
2022/01/02 08:59:13;;;;;;;3.35;0.70;;;11.00;99.90;;;;;;5085691;28;20047;-74
2022/01/02 09:01:39;;;;;;;4.38;0.80;;;10.90;99.90;;;;;;5068071;28;20035;-75
2022/01/02 09:04:05;;;;;;;3.28;0.40;;;10.90;99.90;;;;;;5085055;28;20032;-74
2022/01/02 09:06:30;;;;;;;3.80;0.50;;;10.90;99.90;;;;;;5084948;28;20020;-75
2022/01/02 09:08:56;;;;;;;6.07;0.60;;;10.90;99.90;;;;;;5085084;28;20302;-77
2022/01/02 09:11:22;;;;;;;5.78;0.50;;;10.90;99.90;;;;;;5067235;28;20071;-74
2022/01/02 09:13:48;;;;;;;2.33;0.47;;;10.90;99.90;;;;;;5083792;28;20052;-74
2022/01/02 09:16:14;;;;;;;1.17;0.40;;;10.90;99.90;;;;;;5084907;28;20020;-74
2022/01/02 09:18:40;;;;;;;2.95;0.40;;;10.90;99.90;;;;;;5083899;28;20025;-75
2022/01/02 09:21:05;;;;;;;1.95;0.40;;;11.00;99.90;;;;;;5082883;28;20360;-74
2022/01/02 09:23:31;;;;;;;1.25;0.40;;;11.00;99.90;;;;;;5084764;28;20020;-74
2022/01/02 09:25:57;;;;;;;6.15;0.75;;;11.00;99.90;;;;;;5084276;28;20066;-75
2022/01/02 09:28:22;;;;;;;3.90;0.70;;;11.00;99.90;;;;;;5084519;28;20073;-76
2022/01/02 09:30:48;;;;;;;3.25;0.63;;;11.00;99.90;;;;;;5084377;28;20341;-75
2022/01/02 09:33:14;;;;;;;3.70;0.45;;;11.00;99.90;;;;;;5083166;28;20032;-76
2022/01/02 09:35:41;;;;;;;3.20;0.60;;;11.00;99.90;;;;;;5084718;28;20238;-76
2022/01/02 09:38:08;;;;;;;3.95;0.77;;;11.10;99.90;;;;;;5083954;28;20063;-75
2022/01/02 09:40:35;;;;;;;5.32;0.73;;;11.10;99.90;;;;;;5083992;28;20032;-75
2022/01/02 09:43:02;;;;;;;6.10;0.63;;;11.10;99.90;;;;;;5084225;28;20083;-73
2022/01/02 09:45:28;;;;;;;3.00;0.40;;;11.00;99.90;;;;;;5084503;28;20025;-74
2022/01/02 09:47:54;;;;;;;3.03;0.38;;;10.90;99.90;;;;;;5083992;28;20031;-75
2022/01/02 09:50:20;;;;;;;7.07;0.85;;;10.90;99.90;;;;;;5066510;28;20020;-74
2022/01/02 09:52:46;;;;;;;2.30;0.30;;;11.00;99.90;;;;;;5066330;28;20028;-75
2022/01/02 09:55:13;;;;;;;2.75;0.43;;;11.10;99.90;;;;;;5083069;28;20024;-75
2022/01/02 09:57:47;;;;;;;5.32;0.60;;;11.20;99.90;;;;;;5082817;28;20127;-74
2022/01/02 10:00:14;;;;;;;3.13;0.45;;;11.30;99.90;;;;;;5066799;28;20024;-75
2022/01/02 10:03:03;;;;;;;2.13;0.50;;;11.40;99.90;;;;;;5083681;28;20322;-74
2022/01/02 10:05:47;;;;;;;3.50;0.50;;;11.50;99.90;;;;;;5084329;28;20318;-74
2022/01/02 10:08:26;;;;;;;1.45;0.47;;;11.50;99.90;;;;;;5083746;28;20029;-75
2022/01/02 10:11:01;;;;;;;6.45;0.82;;;11.60;99.90;;;;;;5082830;28;20016;-76
2022/01/02 10:13:50;;;;;;;12.00;1.60;;;11.60;99.90;;;;;;5066380;28;20085;-76
2022/01/02 10:16:42;;;;;;;3.00;0.52;;;11.80;99.90;;;;;;5083220;28;20016;-76
2022/01/02 10:19:26;;;;;;;4.35;0.68;;;11.80;99.90;;;;;;5083531;28;20027;-75
2022/01/02 10:22:00;;;;;;;7.82;0.88;;;11.70;99.90;;;;;;5081298;28;20017;-75
2022/01/02 10:24:29;;;;;;;5.85;0.55;;;11.70;99.90;;;;;;5083746;28;20025;-75
2022/01/02 10:27:13;;;;;;;3.90;0.75;;;11.50;99.90;;;;;;5083070;28;20013;-75
2022/01/02 10:29:53;;;;;;;3.80;0.50;;;11.40;99.90;;;;;;5066267;28;20040;-74
2022/01/02 10:32:37;;;;;;;4.55;0.60;;;11.30;99.90;;;;;;5083517;28;20373;-73
2022/01/02 10:35:22;;;;;;;5.50;0.80;;;11.30;99.90;;;;;;5083916;28;20023;-74
2022/01/02 10:37:53;;;;;;;7.55;0.77;;;11.30;99.90;;;;;;5082580;28;20044;-74
2022/01/02 10:40:35;;;;;;;5.88;0.73;;;11.30;99.90;;;;;;5082010;28;20223;-75
2022/01/02 10:43:03;;;;;;;3.92;0.70;;;11.30;99.90;;;;;;5083673;28;20248;-76
2022/01/02 10:45:34;;;;;;;4.78;0.95;;;11.30;99.90;;;;;;5083555;28;20035;-75
2022/01/02 10:48:00;;;;;;;2.92;0.65;;;11.30;99.90;;;;;;5083801;28;20016;-74
2022/01/02 10:50:26;;;;;;;6.10;0.65;;;11.40;99.90;;;;;;5084803;28;20021;-77
2022/01/02 10:52:51;;;;;;;2.20;0.50;;;11.40;99.90;;;;;;5086323;28;20055;-77
2022/01/02 10:55:26;;;;;;;5.60;0.63;;;11.50;99.90;;;;;;5086413;28;20028;-74
2022/01/02 10:57:53;;;;;;;3.85;0.55;;;11.50;99.90;;;;;;5086240;28;20036;-73
2022/01/02 11:00:24;;;;;;;4.75;0.82;;;11.60;99.90;;;;;;5087390;28;20177;-75
2022/01/02 11:02:49;;;;;;;3.50;0.70;;;11.60;99.90;;;;;;5086205;28;20090;-74
2022/01/02 11:05:17;;;;;;;3.53;0.70;;;11.70;99.90;;;;;;5087337;28;20025;-74
2022/01/02 11:07:46;;;;;;;5.82;0.60;;;11.80;99.90;;;;;;5086181;28;20016;-73
2022/01/02 11:10:14;;;;;;;1.92;0.45;;;11.80;99.90;;;;;;5085564;28;20031;-74
2022/01/02 11:12:41;;;;;;;5.07;0.70;;;11.80;99.90;;;;;;5086147;28;20021;-73
2022/01/02 11:15:10;;;;;;;3.38;0.77;;;11.90;99.90;;;;;;5069314;28;20299;-75
2022/01/02 11:17:36;;;;;;;4.13;0.80;;;11.90;99.90;;;;;;5087349;28;20012;-74
2022/01/02 11:20:07;;;;;;;4.43;1.15;;;12.00;99.90;;;;;;5085775;28;20316;-75
2022/01/02 11:23:13;;;;;;;5.07;0.85;;;12.00;99.90;;;;;;5085339;28;20016;-74
2022/01/02 11:26:05;;;;;;;7.07;1.10;;;12.10;99.90;;;;;;5075123;28;20024;-76
2022/01/02 11:28:39;;;;;;;4.10;0.90;;;12.00;99.90;;;;;;5086172;28;20017;-74
2022/01/02 11:31:09;;;;;;;6.88;1.23;;;12.10;99.90;;;;;;5069539;28;20315;-74
2022/01/02 11:33:39;;;;;;;6.38;1.10;;;12.00;99.90;;;;;;5086520;28;20066;-74
2022/01/02 11:36:26;;;;;;;5.35;1.20;;;11.90;99.90;;;;;;5069066;28;20212;-74
2022/01/02 11:39:03;;;;;;;6.38;1.10;;;12.00;99.90;;;;;;5085267;28;20017;-74
2022/01/02 11:41:52;;;;;;;2.78;1.10;;;12.00;99.90;;;;;;5085361;28;20017;-74
2022/01/02 11:44:42;;;;;;;6.72;1.27;;;12.10;99.90;;;;;;5086894;28;20092;-74
2022/01/02 11:47:07;;;;;;;6.88;0.98;;;12.20;99.90;;;;;;5088883;28;20007;-75
2022/01/02 11:49:40;;;;;;;4.88;1.00;;;12.30;99.90;;;;;;5101071;28;20024;-77
2022/01/02 11:52:10;;;;;;;12.30;1.30;;;12.30;99.90;;;;;;5101425;28;20040;-76
2022/01/02 11:54:41;;;;;;;7.55;1.13;;;12.20;99.90;;;;;;5097264;28;20036;-75
2022/01/02 11:57:41;;;;;;;7.20;1.25;;;12.30;99.90;;;;;;5094114;28;20024;-76
2022/01/02 12:00:07;;;;;;;11.35;1.17;;;12.30;99.90;;;;;;5085906;28;20031;-75
2022/01/02 12:02:35;;;;;;;11.65;1.98;;;12.30;99.90;;;;;;5067536;28;20052;-76
2022/01/02 12:05:11;;;;;;;11.65;1.60;;;12.40;99.90;;;;;;5085082;28;20211;-75
2022/01/02 12:07:52;;;;;;;11.93;1.40;;;12.40;99.90;;;;;;5086258;28;20024;-75
2022/01/02 12:10:24;;;;;;;8.10;1.47;;;12.50;99.90;;;;;;5085917;28;20084;-77
2022/01/02 12:13:10;;;;;;;;;;;12.50;99.90;;;;;;5085571;28;20254;-74
2022/01/02 12:16:06;;;;;;;13.82;1.40;;;12.40;99.90;;;;;;5084738;28;20183;-73
2022/01/02 12:18:33;;;;;;;15.50;1.92;;;12.40;99.90;;;;;;5085209;28;20206;-76
2022/01/02 12:21:14;;;;;;;12.20;1.92;;;12.40;99.90;;;;;;5085795;28;20307;-77
2022/01/02 12:23:53;;;;;;;8.10;1.40;;;12.40;99.90;;;;;;5084370;28;20126;-75
2022/01/02 12:26:35;;;;;;;5.90;1.15;;;12.40;99.90;;;;;;5085948;28;20017;-73
2022/01/02 12:29:13;;;;;;;12.27;1.55;;;12.30;99.90;;;;;;5084945;28;20066;-75
2022/01/02 12:31:42;;;;;;;8.00;1.30;;;12.30;99.90;;;;;;5084318;28;20028;-74
2022/01/02 12:34:17;;;;;;;13.40;1.42;;;12.30;99.90;;;;;;5085430;28;20044;-74
2022/01/02 12:36:46;;;;;;;14.30;1.63;;;12.20;99.90;;;;;;5087325;28;20037;-73
2022/01/02 12:39:14;;;;;;;10.73;1.35;;;12.10;99.90;;;;;;5084293;28;20020;-73
2022/01/02 12:41:42;;;;;;;7.70;1.50;;;12.20;99.90;;;;;;5084465;28;20024;-75
2022/01/02 12:44:13;;;;;;;8.60;1.10;;;12.20;99.90;;;;;;5085525;28;20127;-74
2022/01/02 12:46:45;;;;;;;4.47;1.02;;;12.20;99.90;;;;;;5084256;28;20050;-74
2022/01/02 12:49:14;;;;;;;6.95;1.17;;;12.10;99.90;;;;;;5085215;28;20062;-75
2022/01/02 12:51:44;;;;;;;6.90;1.13;;;12.00;99.90;;;;;;5085275;28;20077;-75
2022/01/02 12:54:14;;;;;;;6.35;1.30;;;12.00;99.90;;;;;;5084158;28;20061;-75
2022/01/02 12:56:45;;;;;;;11.77;1.25;;;11.90;99.90;;;;;;5084074;28;20017;-76